createdAt,value
2019-01-04T00:02:00.599Z,6.10
2019-01-04T00:04:16.662Z,7.07
2019-01-04T00:06:27.406Z,6.70
2019-01-04T00:08:37.263Z,4.60
2019-01-04T00:10:46.983Z,6.50
2019-01-04T00:12:57.205Z,8.73
2019-01-04T00:15:07.143Z,7.83
2019-01-04T00:17:13.544Z,7.33
2019-01-04T00:19:21.940Z,8.07
2019-01-04T00:21:33.669Z,8.30
2019-01-04T00:23:43.338Z,8.83
2019-01-04T00:25:55.103Z,8.90
2019-01-04T00:28:05.995Z,12.63
2019-01-04T00:30:16.007Z,9.30
2019-01-04T00:32:26.247Z,8.67
2019-01-04T00:34:34.586Z,11.93
2019-01-04T00:36:45.814Z,9.87
2019-01-04T00:38:56.815Z,13.20
2019-01-04T00:41:03.668Z,13.80
2019-01-04T00:43:13.535Z,10.10
2019-01-04T00:45:22.471Z,12.00
2019-01-04T00:47:31.451Z,10.43
2019-01-04T00:49:40.166Z,12.73
2019-01-04T00:51:49.554Z,10.23
2019-01-04T00:53:59.479Z,13.07
2019-01-04T00:56:46.771Z,14.17
2019-01-04T00:59:25.484Z,11.53
2019-01-04T01:01:58.086Z,13.10
2019-01-04T01:04:42.880Z,14.70
2019-01-04T01:07:35.187Z,16.43
2019-01-04T01:10:16.885Z,11.87
2019-01-04T01:13:12.569Z,9.97
2019-01-04T01:16:06.779Z,15.03
2019-01-04T01:19:04.032Z,15.27
2019-01-04T01:21:57.927Z,14.57
2019-01-04T01:24:48.397Z,19.73
2019-01-04T01:27:46.795Z,16.03
2019-01-04T01:30:30.311Z,19.40
2019-01-04T01:33:36.631Z,17.47
2019-01-04T01:36:21.526Z,10.73
2019-01-04T01:39:04.307Z,19.23
2019-01-04T01:42:06.200Z,18.57
2019-01-04T01:45:00.769Z,22.77
2019-01-04T01:47:31.639Z,14.67
2019-01-04T01:50:20.138Z,20.70
2019-01-04T01:52:37.358Z,18.03
2019-01-04T01:54:47.319Z,21.13
2019-01-04T01:56:58.738Z,20.80
2019-01-04T01:59:06.645Z,19.20
2019-01-04T02:01:17.096Z,23.87
2019-01-04T02:03:27.191Z,17.33
2019-01-04T02:05:37.242Z,26.53
2019-01-04T02:07:46.950Z,13.30
2019-01-04T02:09:56.240Z,19.47
2019-01-04T02:12:03.699Z,20.33
2019-01-04T02:14:11.561Z,25.57
2019-01-04T02:16:18.977Z,20.30
2019-01-04T02:18:26.798Z,20.90
2019-01-04T02:20:32.206Z,26.13
2019-01-04T02:22:40.947Z,20.67
2019-01-04T02:24:47.830Z,19.20
2019-01-04T02:26:56.722Z,15.33
2019-01-04T02:29:04.726Z,16.80
2019-01-04T02:31:14.646Z,21.87
2019-01-04T02:33:23.077Z,22.10
2019-01-04T02:35:33.995Z,18.37
2019-01-04T02:37:42.252Z,23.77
2019-01-04T02:39:53.588Z,16.87
2019-01-04T02:42:02.575Z,22.80
2019-01-04T02:44:12.467Z,21.20
2019-01-04T02:46:19.764Z,17.57
2019-01-04T02:48:28.856Z,19.40
2019-01-04T02:50:36.887Z,16.33
2019-01-04T02:52:46.740Z,12.17
2019-01-04T02:54:56.611Z,19.73
2019-01-04T02:57:05.766Z,13.60
2019-01-04T02:59:15.722Z,21.43
2019-01-04T03:01:26.674Z,20.33
2019-01-04T03:03:35.639Z,17.57
2019-01-04T03:05:45.398Z,13.37
2019-01-04T03:07:54.235Z,15.10
2019-01-04T03:10:00.962Z,19.80
2019-01-04T03:12:10.443Z,19.53
2019-01-04T03:14:19.975Z,17.13
2019-01-04T03:16:28.086Z,19.17
2019-01-04T03:18:34.118Z,22.30
2019-01-04T03:20:42.985Z,27.80
2019-01-04T03:22:53.904Z,18.90
2019-01-04T03:25:02.823Z,19.27
2019-01-04T03:27:12.959Z,20.67
2019-01-04T03:29:24.973Z,23.63
2019-01-04T03:31:35.944Z,22.03
2019-01-04T03:33:47.413Z,18.80
2019-01-04T03:35:58.567Z,15.97
2019-01-04T03:38:05.848Z,12.40
2019-01-04T03:40:13.003Z,13.90
2019-01-04T03:42:22.930Z,15.77
2019-01-04T03:44:30.867Z,14.87
2019-01-04T03:46:41.223Z,15.63
2019-01-04T03:48:52.230Z,16.17
2019-01-04T03:50:58.720Z,19.37
2019-01-04T03:53:03.779Z,15.00
2019-01-04T03:55:11.848Z,17.10
2019-01-04T03:57:22.191Z,14.67
2019-01-04T03:59:31.112Z,18.77
2019-01-04T04:01:39.881Z,8.73
2019-01-04T04:03:49.696Z,14.03
2019-01-04T04:05:56.794Z,13.13
2019-01-04T04:08:04.326Z,14.60
2019-01-04T04:10:14.219Z,18.73
2019-01-04T04:12:28.124Z,11.23
2019-01-04T04:14:38.942Z,14.07
2019-01-04T04:16:46.823Z,7.33
2019-01-04T04:18:55.272Z,10.70
2019-01-04T04:21:04.014Z,11.87
2019-01-04T04:23:13.290Z,10.67
2019-01-04T04:25:25.511Z,10.33
2019-01-04T04:27:36.294Z,12.97
2019-01-04T04:29:45.427Z,14.73
2019-01-04T04:31:56.372Z,11.67
2019-01-04T04:34:05.960Z,6.60
2019-01-04T04:36:15.720Z,12.97
2019-01-04T04:38:24.690Z,7.90
2019-01-04T04:40:30.850Z,12.43
2019-01-04T04:42:38.663Z,11.80
2019-01-04T04:44:52.386Z,7.03
2019-01-04T04:47:03.259Z,10.00
2019-01-04T04:49:13.300Z,11.57
2019-01-04T04:51:23.623Z,8.97
2019-01-04T04:53:32.697Z,10.17
2019-01-04T04:55:44.535Z,7.57
2019-01-04T04:57:51.364Z,16.13
2019-01-04T05:00:02.227Z,11.37
2019-01-04T05:02:11.498Z,10.37
2019-01-04T05:04:21.016Z,8.87
2019-01-04T05:06:30.726Z,9.17
2019-01-04T05:08:37.939Z,12.17
2019-01-04T05:10:46.845Z,13.03
2019-01-04T05:12:53.556Z,13.07
2019-01-04T05:15:00.940Z,13.13
2019-01-04T05:17:09.522Z,13.03
2019-01-04T05:19:22.247Z,12.90
2019-01-04T05:21:30.614Z,11.33
2019-01-04T05:23:36.787Z,13.10
2019-01-04T05:25:43.223Z,11.43
2019-01-04T05:27:51.377Z,13.67
2019-01-04T05:29:58.608Z,12.10
2019-01-04T05:32:09.530Z,12.43
2019-01-04T05:34:19.258Z,9.70
2019-01-04T05:36:27.142Z,11.97
2019-01-04T05:38:36.880Z,17.30
2019-01-04T05:40:44.885Z,14.67
2019-01-04T05:42:55.796Z,19.20
2019-01-04T05:45:05.810Z,9.43
2019-01-04T05:47:15.658Z,13.13
2019-01-04T05:49:21.899Z,16.03
2019-01-04T05:51:32.776Z,12.53
2019-01-04T05:53:41.598Z,10.60
2019-01-04T05:55:50.760Z,9.57
2019-01-04T05:57:58.198Z,11.73
2019-01-04T06:00:08.887Z,14.10
2019-01-04T06:02:19.431Z,9.30
2019-01-04T06:04:26.216Z,17.00
2019-01-04T06:06:34.539Z,12.43
2019-01-04T06:08:42.470Z,9.80
2019-01-04T06:10:50.384Z,13.83
2019-01-04T06:12:57.221Z,10.50
2019-01-04T06:15:06.256Z,10.43
2019-01-04T06:17:11.638Z,11.70
2019-01-04T06:19:21.479Z,13.37
2019-01-04T06:21:32.455Z,11.90
2019-01-04T06:23:43.814Z,13.00
2019-01-04T06:25:50.952Z,10.27
2019-01-04T06:28:00.051Z,17.67
2019-01-04T06:30:12.523Z,14.07
2019-01-04T06:32:24.858Z,8.87
2019-01-04T06:34:37.675Z,15.20
2019-01-04T06:36:47.462Z,8.73
2019-01-04T06:38:58.118Z,16.97
2019-01-04T06:41:13.063Z,14.20
2019-01-04T06:43:25.081Z,16.00
2019-01-04T06:45:36.064Z,13.37
2019-01-04T06:47:47.018Z,14.50
2019-01-04T06:49:55.162Z,8.63
2019-01-04T06:52:04.600Z,12.60
2019-01-04T06:54:49.515Z,16.97
2019-01-04T06:57:00.603Z,14.23
2019-01-04T06:59:09.010Z,13.97
2019-01-04T07:01:18.487Z,17.27
2019-01-04T07:03:25.411Z,6.07
2019-01-04T07:05:32.587Z,11.77
2019-01-04T07:07:37.110Z,11.50
2019-01-04T07:09:43.674Z,15.67
2019-01-04T07:11:50.535Z,13.53
2019-01-04T07:13:57.599Z,11.53
2019-01-04T07:16:07.059Z,11.10
2019-01-04T07:18:16.102Z,21.77
2019-01-04T07:20:25.947Z,12.63
2019-01-04T07:22:36.178Z,11.70
2019-01-04T07:24:49.639Z,12.03
2019-01-04T07:26:55.067Z,13.53
2019-01-04T07:29:05.558Z,14.80
2019-01-04T07:31:12.672Z,14.50
2019-01-04T07:33:24.566Z,13.80
2019-01-04T07:35:29.674Z,12.53
2019-01-04T07:37:34.443Z,13.33
2019-01-04T07:39:42.670Z,16.70
2019-01-04T07:41:51.735Z,8.53
2019-01-04T07:44:00.349Z,12.37
2019-01-04T07:46:10.228Z,15.93
2019-01-04T07:48:21.386Z,13.70
2019-01-04T07:50:31.081Z,12.77
2019-01-04T07:52:39.911Z,13.50
2019-01-04T07:54:51.444Z,17.90
2019-01-04T07:56:57.906Z,14.07
2019-01-04T07:59:06.294Z,10.10
2019-01-04T08:01:16.651Z,12.50
2019-01-04T08:03:30.771Z,14.67
2019-01-04T08:05:48.763Z,14.53
2019-01-04T08:08:00.432Z,12.90
2019-01-04T08:10:08.903Z,12.80
2019-01-04T08:12:21.015Z,14.93
2019-01-04T08:14:31.738Z,13.80
2019-01-04T08:16:37.565Z,17.67
2019-01-04T08:18:48.454Z,20.90
2019-01-04T08:20:56.322Z,15.70
2019-01-04T08:23:05.139Z,17.33
2019-01-04T08:25:14.561Z,13.93
2019-01-04T08:27:26.888Z,13.40
2019-01-04T08:29:38.807Z,12.07
2019-01-04T08:31:53.867Z,15.90
2019-01-04T08:34:02.695Z,14.80
2019-01-04T08:36:10.807Z,15.03
2019-01-04T08:38:20.881Z,17.87
2019-01-04T08:40:29.703Z,14.47
2019-01-04T08:42:37.978Z,10.33
2019-01-04T08:44:49.754Z,16.53
2019-01-04T08:46:57.778Z,10.87
2019-01-04T08:49:04.226Z,14.30
2019-01-04T08:51:13.222Z,19.93
2019-01-04T08:53:27.570Z,16.67
2019-01-04T08:55:37.850Z,17.27
2019-01-04T08:57:49.035Z,12.23
2019-01-04T08:59:59.815Z,15.23
2019-01-04T09:02:08.081Z,12.47
2019-01-04T09:04:12.860Z,15.07
2019-01-04T09:06:24.255Z,15.80
2019-01-04T09:08:35.162Z,18.73
2019-01-04T09:10:49.384Z,12.80
2019-01-04T09:12:59.412Z,12.13
2019-01-04T09:15:07.766Z,16.90
2019-01-04T09:17:16.083Z,18.43
2019-01-04T09:19:21.555Z,9.23
2019-01-04T09:21:28.862Z,12.27
2019-01-04T09:23:38.327Z,8.80
2019-01-04T09:25:50.839Z,10.03
2019-01-04T09:27:59.955Z,7.83
2019-01-04T09:30:07.911Z,6.40
2019-01-04T09:32:17.958Z,8.93
2019-01-04T09:34:26.034Z,12.40
2019-01-04T09:36:36.058Z,18.97
2019-01-04T09:38:52.352Z,12.27
2019-01-04T09:41:31.314Z,10.73
2019-01-04T09:43:38.630Z,12.67
2019-01-04T09:45:44.361Z,14.27
2019-01-04T09:47:50.097Z,9.63
2019-01-04T09:50:00.243Z,10.00
2019-01-04T09:52:07.423Z,10.43
2019-01-04T09:54:12.730Z,10.30
2019-01-04T09:56:19.800Z,13.47
2019-01-04T09:58:28.192Z,13.10
2019-01-04T10:00:35.663Z,11.90
2019-01-04T10:02:49.018Z,15.87
2019-01-04T10:04:57.763Z,12.67
2019-01-04T10:07:03.238Z,11.30
2019-01-04T10:09:08.807Z,11.53
2019-01-04T10:11:18.762Z,10.30
2019-01-04T10:13:26.899Z,15.43
2019-01-04T10:15:37.063Z,8.60
2019-01-04T10:17:45.943Z,19.47
2019-01-04T10:19:57.279Z,10.60
2019-01-04T10:22:07.982Z,14.93
2019-01-04T10:24:18.811Z,9.20
2019-01-04T10:26:29.550Z,15.67
2019-01-04T10:28:37.226Z,8.97
2019-01-04T10:30:42.002Z,9.17
2019-01-04T10:32:50.699Z,11.23
2019-01-04T10:34:58.695Z,10.90
2019-01-04T10:37:11.206Z,15.47
2019-01-04T10:39:23.177Z,17.90
2019-01-04T10:41:33.550Z,10.83
2019-01-04T10:43:46.248Z,17.43
2019-01-04T10:45:57.085Z,12.33
2019-01-04T10:48:04.983Z,10.87
2019-01-04T10:50:14.295Z,14.47
2019-01-04T10:52:26.454Z,11.43
2019-01-04T10:54:41.699Z,11.80
2019-01-04T10:56:55.914Z,10.20
2019-01-04T10:59:04.746Z,6.63
2019-01-04T11:01:13.227Z,15.17
2019-01-04T11:03:22.711Z,13.37
2019-01-04T11:05:32.531Z,9.97
2019-01-04T11:07:41.401Z,16.87
2019-01-04T11:09:50.355Z,13.10
2019-01-04T11:12:00.783Z,13.80
2019-01-04T11:14:09.446Z,12.30
2019-01-04T11:16:19.682Z,9.67
2019-01-04T11:18:32.289Z,10.00
2019-01-04T11:20:47.948Z,10.23
2019-01-04T11:23:08.830Z,12.50
2019-01-04T11:25:58.119Z,18.30
2019-01-04T11:28:42.212Z,8.93
2019-01-04T11:31:12.377Z,11.37
2019-01-04T11:33:58.028Z,11.17
2019-01-04T11:36:33.537Z,12.77
2019-01-04T11:39:21.195Z,9.37
2019-01-04T11:42:13.499Z,7.73
2019-01-04T11:44:32.870Z,10.93
2019-01-04T11:46:56.527Z,10.53
2019-01-04T11:49:18.122Z,9.97
2019-01-04T11:51:43.674Z,14.40
2019-01-04T11:53:49.875Z,8.73
2019-01-04T11:55:59.868Z,7.80
2019-01-04T11:58:05.879Z,9.33
2019-01-04T12:00:11.820Z,6.37
2019-01-04T12:02:26.222Z,9.83
2019-01-04T12:04:32.103Z,9.20
2019-01-04T12:06:43.002Z,7.53
2019-01-04T12:08:51.574Z,8.30
2019-01-04T12:11:00.727Z,11.50
2019-01-04T12:13:10.283Z,9.83
2019-01-04T12:15:17.906Z,12.13
2019-01-04T12:17:27.767Z,6.73
2019-01-04T12:19:35.222Z,12.87
2019-01-04T12:21:47.256Z,6.23
2019-01-04T12:23:54.610Z,6.73
2019-01-04T12:26:02.836Z,8.10
2019-01-04T12:28:12.945Z,8.50
2019-01-04T12:30:22.166Z,8.27
2019-01-04T12:32:30.722Z,8.77
2019-01-04T12:34:40.838Z,5.60
2019-01-04T12:36:50.438Z,5.40
2019-01-04T12:39:01.478Z,6.80
2019-01-04T12:41:08.871Z,6.77
2019-01-04T12:43:20.231Z,6.67
2019-01-04T12:45:30.196Z,7.50
2019-01-04T12:47:38.922Z,6.10
2019-01-04T12:49:49.129Z,9.87
2019-01-04T12:51:57.830Z,7.03
2019-01-04T12:54:07.102Z,6.93
2019-01-04T12:56:16.346Z,7.13
2019-01-04T12:58:26.855Z,15.17
2019-01-04T13:00:35.931Z,7.07
2019-01-04T13:02:45.674Z,6.67
2019-01-04T13:04:56.045Z,9.20
2019-01-04T13:07:05.090Z,11.17
2019-01-04T13:09:16.615Z,8.33
2019-01-04T13:11:24.491Z,8.50
2019-01-04T13:13:34.258Z,8.53
2019-01-04T13:15:42.568Z,8.83
2019-01-04T13:17:52.486Z,7.07
2019-01-04T13:20:01.712Z,7.47
2019-01-04T13:22:09.238Z,5.53
2019-01-04T13:24:14.150Z,7.37
2019-01-04T13:26:22.367Z,8.30
2019-01-04T13:28:34.674Z,4.57
2019-01-04T13:30:43.195Z,10.80
2019-01-04T13:32:53.235Z,8.43
2019-01-04T13:35:01.463Z,8.67
2019-01-04T13:37:07.420Z,11.43
2019-01-04T13:39:15.406Z,5.30
2019-01-04T13:41:22.096Z,6.50
2019-01-04T13:43:28.504Z,6.07
2019-01-04T13:45:38.759Z,8.80
2019-01-04T13:47:46.651Z,7.33
2019-01-04T13:49:53.323Z,9.27
2019-01-04T13:51:59.070Z,9.90
2019-01-04T13:54:12.285Z,7.70
2019-01-04T13:56:21.142Z,9.03
2019-01-04T13:58:30.359Z,3.33
2019-01-04T14:00:43.826Z,7.87
2019-01-04T14:02:53.391Z,5.73
2019-01-04T14:05:05.827Z,5.53
2019-01-04T14:07:13.428Z,8.77
2019-01-04T14:09:22.291Z,8.07
2019-01-04T14:11:34.674Z,9.97
2019-01-04T14:13:44.375Z,9.07
2019-01-04T14:15:52.488Z,3.10
2019-01-04T14:18:01.812Z,9.07
2019-01-04T14:20:12.327Z,4.30
2019-01-04T14:22:20.729Z,5.60
2019-01-04T14:24:28.659Z,6.30
2019-01-04T14:26:40.009Z,11.57
2019-01-04T14:28:47.864Z,7.73
2019-01-04T14:30:56.547Z,6.80
2019-01-04T14:33:10.547Z,9.53
2019-01-04T14:35:17.942Z,7.73
2019-01-04T14:37:27.406Z,3.33
2019-01-04T14:39:37.370Z,9.13
2019-01-04T14:41:47.817Z,5.20
2019-01-04T14:43:57.946Z,12.83
2019-01-04T14:46:05.559Z,4.60
2019-01-04T14:48:17.799Z,11.70
2019-01-04T14:50:24.956Z,6.83
2019-01-04T14:52:33.796Z,14.67
2019-01-04T14:54:40.627Z,7.87
2019-01-04T14:56:54.034Z,8.50
2019-01-04T14:58:59.822Z,10.23
2019-01-04T15:01:08.582Z,12.10
2019-01-04T15:03:18.918Z,7.23
2019-01-04T15:05:27.238Z,6.47
2019-01-04T15:07:36.233Z,5.67
2019-01-04T15:09:46.491Z,9.27
2019-01-04T15:11:57.772Z,12.50
2019-01-04T15:14:06.809Z,10.10
2019-01-04T15:16:11.999Z,13.83
2019-01-04T15:18:20.080Z,8.63
2019-01-04T15:20:28.631Z,8.87
2019-01-04T15:22:37.831Z,7.07
2019-01-04T15:24:45.814Z,10.17
2019-01-04T15:26:55.899Z,8.30
2019-01-04T15:29:04.946Z,8.47
2019-01-04T15:31:14.632Z,13.00
2019-01-04T15:33:27.820Z,9.73
2019-01-04T15:35:37.767Z,6.77
2019-01-04T15:37:46.965Z,11.80
2019-01-04T15:39:58.195Z,6.80
2019-01-04T15:42:08.519Z,7.57
2019-01-04T15:44:17.479Z,10.27
2019-01-04T15:46:26.643Z,9.83
2019-01-04T15:48:34.067Z,12.57
2019-01-04T15:50:41.481Z,13.13
2019-01-04T15:52:51.398Z,12.13
2019-01-04T15:55:00.606Z,9.70
2019-01-04T15:57:09.449Z,10.97
2019-01-04T15:59:19.496Z,11.73
2019-01-04T16:01:28.825Z,13.53
2019-01-04T16:03:38.119Z,8.03
2019-01-04T16:05:46.930Z,13.60
2019-01-04T16:07:55.784Z,11.43
2019-01-04T16:10:07.462Z,10.60
2019-01-04T16:12:17.127Z,13.73
2019-01-04T16:14:26.173Z,14.90
2019-01-04T16:16:36.934Z,9.43
2019-01-04T16:18:48.766Z,10.90
2019-01-04T16:20:55.514Z,11.13
2019-01-04T16:23:04.199Z,9.03
2019-01-04T16:25:14.154Z,7.73
2019-01-04T16:27:24.886Z,11.23
2019-01-04T16:29:38.702Z,12.80
2019-01-04T16:31:43.431Z,12.33
2019-01-04T16:33:52.998Z,11.23
2019-01-04T16:36:02.374Z,12.03
2019-01-04T16:38:10.893Z,13.97
2019-01-04T16:40:22.727Z,10.70
2019-01-04T16:42:33.159Z,10.57
2019-01-04T16:44:42.466Z,10.83
2019-01-04T16:46:53.511Z,8.73
2019-01-04T16:49:02.440Z,13.17
2019-01-04T16:51:12.412Z,11.67
2019-01-04T16:53:17.855Z,14.53
2019-01-04T16:55:25.363Z,9.27
2019-01-04T16:57:31.443Z,14.57
2019-01-04T16:59:36.531Z,12.87
2019-01-04T17:01:43.312Z,12.67
2019-01-04T17:03:52.502Z,11.27
2019-01-04T17:06:00.694Z,11.87
2019-01-04T17:08:09.575Z,8.83
2019-01-04T17:10:18.115Z,10.80
2019-01-04T17:12:25.499Z,9.63
2019-01-04T17:14:33.462Z,13.40
2019-01-04T17:16:47.796Z,7.23
2019-01-04T17:18:56.211Z,12.50
2019-01-04T17:21:04.349Z,13.17
2019-01-04T17:23:14.310Z,13.40
2019-01-04T17:25:22.898Z,15.40
2019-01-04T17:27:31.337Z,14.20
2019-01-04T17:29:41.257Z,10.67
2019-01-04T17:31:52.394Z,10.03
2019-01-04T17:34:01.331Z,18.97
2019-01-04T17:36:15.326Z,15.83
2019-01-04T17:38:25.270Z,14.10
2019-01-04T17:40:33.206Z,12.13
2019-01-04T17:42:42.407Z,11.17
2019-01-04T17:44:53.289Z,10.47
2019-01-04T17:47:07.594Z,13.90
2019-01-04T17:49:15.178Z,11.73
2019-01-04T17:51:21.434Z,14.73
2019-01-04T17:53:30.439Z,13.93
2019-01-04T17:55:37.715Z,12.97
2019-01-04T17:57:42.672Z,15.73
2019-01-04T17:59:49.462Z,11.77
2019-01-04T18:01:59.345Z,16.97
2019-01-04T18:04:05.479Z,15.40
2019-01-04T18:06:14.331Z,17.70
2019-01-04T18:08:23.623Z,13.87
2019-01-04T18:10:30.541Z,14.10
2019-01-04T18:12:40.339Z,11.60
2019-01-04T18:14:54.087Z,17.67
2019-01-04T18:17:02.457Z,11.23
2019-01-04T18:19:11.566Z,13.33
2019-01-04T18:21:18.907Z,12.47
2019-01-04T18:23:28.238Z,15.33
2019-01-04T18:25:40.918Z,15.00
2019-01-04T18:27:49.350Z,13.30
2019-01-04T18:29:57.798Z,15.83
2019-01-04T18:32:06.182Z,16.60
2019-01-04T18:34:14.020Z,13.20
2019-01-04T18:36:21.495Z,13.87
2019-01-04T18:38:29.832Z,18.23
2019-01-04T18:40:38.758Z,12.77
2019-01-04T18:42:47.892Z,14.40
2019-01-04T18:44:55.898Z,16.00
2019-01-04T18:47:06.969Z,19.87
2019-01-04T18:49:15.283Z,14.57
2019-01-04T18:51:22.303Z,14.60
2019-01-04T18:53:27.442Z,13.20
2019-01-04T18:55:35.814Z,14.80
2019-01-04T18:57:44.668Z,15.67
2019-01-04T18:59:55.243Z,13.80
2019-01-04T19:02:00.426Z,12.93
2019-01-04T19:04:06.154Z,14.20
2019-01-04T19:06:13.526Z,12.13
2019-01-04T19:08:25.681Z,12.60
2019-01-04T19:10:38.520Z,16.63
2019-01-04T19:12:48.647Z,16.23
2019-01-04T19:14:58.855Z,15.80
2019-01-04T19:17:07.740Z,18.00
2019-01-04T19:19:17.512Z,15.43
2019-01-04T19:21:27.575Z,13.13
2019-01-04T19:23:39.635Z,12.67
2019-01-04T19:25:49.958Z,15.30
2019-01-04T19:27:58.904Z,21.40
2019-01-04T19:30:08.785Z,13.97
2019-01-04T19:32:17.907Z,14.50
2019-01-04T19:34:26.946Z,22.33
2019-01-04T19:36:40.987Z,18.20
2019-01-04T19:38:50.926Z,16.93
2019-01-04T19:40:59.303Z,17.00
2019-01-04T19:43:11.147Z,17.80
2019-01-04T19:45:21.565Z,20.37
2019-01-04T19:47:30.839Z,13.03
2019-01-04T19:49:37.742Z,17.23
2019-01-04T19:51:43.151Z,15.10
2019-01-04T19:53:51.558Z,21.27
2019-01-04T19:55:59.335Z,17.50
2019-01-04T19:58:07.400Z,13.03
2019-01-04T20:00:15.845Z,16.03
2019-01-04T20:02:23.365Z,21.83
2019-01-04T20:04:28.647Z,19.43
2019-01-04T20:07:27.434Z,17.90
2019-01-04T20:10:39.294Z,17.33
2019-01-04T20:13:43.266Z,15.50
2019-01-04T20:16:19.822Z,16.10
2019-01-04T20:19:00.375Z,16.07
2019-01-04T20:21:26.846Z,20.80
2019-01-04T20:23:58.010Z,20.13
2019-01-04T20:26:31.048Z,17.77
2019-01-04T20:28:55.743Z,15.63
2019-01-04T20:31:36.313Z,10.50
2019-01-04T20:33:59.546Z,18.20
2019-01-04T20:36:27.370Z,14.33
2019-01-04T20:39:00.175Z,21.30
2019-01-04T20:41:32.961Z,14.50
2019-01-04T20:44:06.919Z,18.90
2019-01-04T20:46:31.411Z,15.83
2019-01-04T20:48:58.364Z,19.33
2019-01-04T20:51:29.916Z,23.83
2019-01-04T20:54:15.337Z,18.47
2019-01-04T20:56:55.767Z,16.60
2019-01-04T20:59:26.279Z,16.97
2019-01-04T21:01:49.203Z,16.70
2019-01-04T21:04:32.207Z,23.60
2019-01-04T21:07:01.883Z,18.77
2019-01-04T21:09:28.488Z,18.07
2019-01-04T21:11:56.114Z,12.93
2019-01-04T21:14:29.290Z,15.43
2019-01-04T21:17:02.867Z,17.10
2019-01-04T21:19:25.451Z,15.43
2019-01-04T21:21:52.830Z,16.17
2019-01-04T21:24:20.519Z,24.77
2019-01-04T21:26:48.421Z,20.07
2019-01-04T21:29:14.466Z,19.93
2019-01-04T21:31:41.295Z,14.27
2019-01-04T21:34:07.786Z,16.93
2019-01-04T21:36:43.595Z,16.23
2019-01-04T21:39:12.198Z,22.47
2019-01-04T21:41:32.682Z,12.43
2019-01-04T21:44:08.868Z,14.50
2019-01-04T21:46:37.466Z,11.93
2019-01-04T21:49:10.778Z,20.40
2019-01-04T21:51:34.639Z,20.07
2019-01-04T21:54:16.760Z,17.73
2019-01-04T21:56:40.363Z,15.27
2019-01-04T21:59:10.091Z,13.57
2019-01-04T22:01:35.411Z,10.90
2019-01-04T22:04:10.729Z,22.77
2019-01-04T22:06:35.863Z,13.57
2019-01-04T22:09:07.843Z,15.63
2019-01-04T22:11:35.194Z,16.33
2019-01-04T22:14:00.563Z,18.40
2019-01-04T22:16:30.027Z,13.20
2019-01-04T22:19:06.728Z,17.77
2019-01-04T22:21:33.236Z,13.57
2019-01-04T22:24:08.862Z,17.57
2019-01-04T22:26:36.033Z,14.63
2019-01-04T22:29:11.624Z,11.83
2019-01-04T22:31:50.036Z,13.93
2019-01-04T22:34:22.114Z,15.13
2019-01-04T22:36:48.833Z,12.70
2019-01-04T22:39:14.119Z,13.90
2019-01-04T22:41:44.451Z,12.33
2019-01-04T22:44:11.517Z,13.13
2019-01-04T22:46:54.590Z,14.67
2019-01-04T22:49:13.183Z,15.43
2019-01-04T22:51:41.374Z,10.63
2019-01-04T22:54:04.443Z,16.93
2019-01-04T22:56:43.180Z,12.47
2019-01-04T22:59:10.054Z,9.67
2019-01-04T23:01:44.014Z,14.03
2019-01-04T23:04:17.253Z,14.90
2019-01-04T23:06:43.264Z,10.37
2019-01-04T23:09:03.150Z,16.50
2019-01-04T23:11:29.684Z,12.63
2019-01-04T23:13:52.462Z,13.50
2019-01-04T23:16:15.371Z,16.27
2019-01-04T23:18:39.522Z,11.43
2019-01-04T23:21:22.055Z,14.80
2019-01-04T23:23:47.801Z,16.97
2019-01-04T23:26:20.522Z,13.67
2019-01-04T23:28:47.916Z,14.53
2019-01-04T23:31:30.323Z,16.53
2019-01-04T23:34:08.851Z,10.50
2019-01-04T23:36:38.528Z,15.87
2019-01-04T23:39:14.363Z,16.87
2019-01-04T23:41:53.469Z,15.73
2019-01-04T23:44:26.422Z,12.93
2019-01-04T23:46:56.479Z,21.50
2019-01-04T23:49:43.359Z,20.30
2019-01-04T23:52:25.830Z,18.77
2019-01-04T23:54:49.518Z,17.83
2019-01-04T23:57:23.138Z,20.70
2019-01-04T23:59:51.877Z,21.13
